Young, Canada
Current Conditions -  °F | °C
As of 10:00 PM on Sunday 21 Dec 2014 (Local Time) from CYXE Reporting Station
Light Snow Light Snow  
Wind Chill: 13°   Ceiling: 200
Heat Index: 25°   Visibility: 1mi
Dew Point: 23°   Wind: 13mph
Humidity: 93%   Direction: 20°NNE
Pressure: 29.52"   Gusts: NA
Location:  51.77°N, 105.75°W
Report Text: CYXE 220400Z 02011KT 1SM R09/P6000FT/N -SN BR OVC002 M04/M05 A2952 RMK FG2ST6 VIS VRB 3/4-11/4 SLP028
Loading
Personal Weather Stations






























Interactive Weather Map New forecast layout! Learn more

10-Day Weather Forecast

Advertisements
Track Severe Weather on mobile